sensor_id;sensor_type;location;lat;lon;timestamp;temperature;humidity
71839;SHT31;59687;37.520;15.068;2022-12-11T00:00:38;15.64;80.83
71839;SHT31;59687;37.520;15.068;2022-12-11T00:03:05;15.61;81.37
71839;SHT31;59687;37.520;15.068;2022-12-11T00:05:40;15.71;80.87
71839;SHT31;59687;37.520;15.068;2022-12-11T00:08:07;15.67;81.26
71839;SHT31;59687;37.520;15.068;2022-12-11T00:10:34;15.67;81.63
71839;SHT31;59687;37.520;15.068;2022-12-11T00:13:03;15.64;81.64
71839;SHT31;59687;37.520;15.068;2022-12-11T00:15:33;15.71;81.37
71839;SHT31;59687;37.520;15.068;2022-12-11T00:18:01;15.71;81.24
71839;SHT31;59687;37.520;15.068;2022-12-11T00:20:28;15.68;81.38
71839;SHT31;59687;37.520;15.068;2022-12-11T00:22:55;15.68;81.18
71839;SHT31;59687;37.520;15.068;2022-12-11T00:25:22;15.74;80.57
71839;SHT31;59687;37.520;15.068;2022-12-11T00:27:49;15.84;79.94
71839;SHT31;59687;37.520;15.068;2022-12-11T00:30:16;15.92;79.80
71839;SHT31;59687;37.520;15.068;2022-12-11T00:32:43;15.97;79.45
71839;SHT31;59687;37.520;15.068;2022-12-11T00:35:10;16.01;78.84
71839;SHT31;59687;37.520;15.068;2022-12-11T00:37:37;16.13;78.38
71839;SHT31;59687;37.520;15.068;2022-12-11T00:40:04;16.12;78.38
71839;SHT31;59687;37.520;15.068;2022-12-11T00:42:32;16.15;78.16
71839;SHT31;59687;37.520;15.068;2022-12-11T00:45:00;16.24;77.74
71839;SHT31;59687;37.520;15.068;2022-12-11T00:47:28;16.16;78.06
71839;SHT31;59687;37.520;15.068;2022-12-11T00:49:55;16.10;78.12
71839;SHT31;59687;37.520;15.068;2022-12-11T00:52:21;16.15;78.04
71839;SHT31;59687;37.520;15.068;2022-12-11T00:54:48;16.16;78.08
71839;SHT31;59687;37.520;15.068;2022-12-11T00:57:15;16.06;78.53
71839;SHT31;59687;37.520;15.068;2022-12-11T00:59:43;16.09;78.42
71839;SHT31;59687;37.520;15.068;2022-12-11T01:02:10;15.99;78.85
71839;SHT31;59687;37.520;15.068;2022-12-11T01:04:40;15.92;79.31
71839;SHT31;59687;37.520;15.068;2022-12-11T01:07:08;15.95;79.17
71839;SHT31;59687;37.520;15.068;2022-12-11T01:09:35;15.97;79.21
71839;SHT31;59687;37.520;15.068;2022-12-11T01:12:20;15.92;79.15
71839;SHT31;59687;37.520;15.068;2022-12-11T01:14:47;15.97;79.01
71839;SHT31;59687;37.520;15.068;2022-12-11T01:17:14;15.88;79.10
71839;SHT31;59687;37.520;15.068;2022-12-11T01:19:41;15.88;79.32
71839;SHT31;59687;37.520;15.068;2022-12-11T01:22:08;15.84;79.48
71839;SHT31;59687;37.520;15.068;2022-12-11T01:24:35;15.71;79.58
71839;SHT31;59687;37.520;15.068;2022-12-11T01:27:04;15.74;79.51
71839;SHT31;59687;37.520;15.068;2022-12-11T01:29:32;15.63;80.00
71839;SHT31;59687;37.520;15.068;2022-12-11T01:31:59;15.61;80.25
71839;SHT31;59687;37.520;15.068;2022-12-11T01:34:28;15.58;80.38
71839;SHT31;59687;37.520;15.068;2022-12-11T01:36:55;15.51;80.54
71839;SHT31;59687;37.520;15.068;2022-12-11T01:39:23;15.46;80.68
71839;SHT31;59687;37.520;15.068;2022-12-11T01:41:55;15.42;80.83
71839;SHT31;59687;37.520;15.068;2022-12-11T01:46:52;15.29;81.26
71839;SHT31;59687;37.520;15.068;2022-12-11T01:49:22;15.29;81.37
71839;SHT31;59687;37.520;15.068;2022-12-11T01:52:02;15.30;81.34
71839;SHT31;59687;37.520;15.068;2022-12-11T01:54:31;15.29;81.23
71839;SHT31;59687;37.520;15.068;2022-12-11T01:57:02;15.27;81.21
71839;SHT31;59687;37.520;15.068;2022-12-11T01:59:32;15.22;81.41
71839;SHT31;59687;37.520;15.068;2022-12-11T02:02:08;15.13;81.69
71839;SHT31;59687;37.520;15.068;2022-12-11T02:04:37;15.15;81.54
71839;SHT31;59687;37.520;15.068;2022-12-11T02:07:05;15.13;81.23
71839;SHT31;59687;37.520;15.068;2022-12-11T02:09:34;15.15;81.03
71839;SHT31;59687;37.520;15.068;2022-12-11T02:12:19;15.15;80.83
71839;SHT31;59687;37.520;15.068;2022-12-11T02:15:01;15.15;80.83
71839;SHT31;59687;37.520;15.068;2022-12-11T02:17:36;15.13;80.78
71839;SHT31;59687;37.520;15.068;2022-12-11T02:31:21;14.83;80.68
71839;SHT31;59687;37.520;15.068;2022-12-11T02:36:32;14.95;79.44
71839;SHT31;59687;37.520;15.068;2022-12-11T02:39:02;15.06;78.42
71839;SHT31;59687;37.520;15.068;2022-12-11T02:41:31;14.99;78.65
71839;SHT31;59687;37.520;15.068;2022-12-11T02:44:01;14.95;78.41
71839;SHT31;59687;37.520;15.068;2022-12-11T02:46:33;14.95;78.06
71839;SHT31;59687;37.520;15.068;2022-12-11T02:49:04;14.85;78.45
71839;SHT31;59687;37.520;15.068;2022-12-11T02:51:37;14.75;78.66
71839;SHT31;59687;37.520;15.068;2022-12-11T02:54:08;14.64;79.09
71839;SHT31;59687;37.520;15.068;2022-12-11T02:56:43;14.51;79.50
71839;SHT31;59687;37.520;15.068;2022-12-11T02:59:17;14.43;79.67
71839;SHT31;59687;37.520;15.068;2022-12-11T03:01:45;14.34;79.78
71839;SHT31;59687;37.520;15.068;2022-12-11T03:04:13;14.40;78.76
71839;SHT31;59687;37.520;15.068;2022-12-11T03:06:47;14.44;78.21
71839;SHT31;59687;37.520;15.068;2022-12-11T03:09:14;14.47;77.57
71839;SHT31;59687;37.520;15.068;2022-12-11T03:11:41;14.46;77.92
71839;SHT31;59687;37.520;15.068;2022-12-11T03:14:08;14.46;77.26
71839;SHT31;59687;37.520;15.068;2022-12-11T03:16:43;14.40;77.74
71839;SHT31;59687;37.520;15.068;2022-12-11T03:19:33;14.29;78.35
71839;SHT31;59687;37.520;15.068;2022-12-11T03:22:20;14.25;78.21
71839;SHT31;59687;37.520;15.068;2022-12-11T03:25:15;14.26;78.00
71839;SHT31;59687;37.520;15.068;2022-12-11T03:28:11;14.16;78.59
71839;SHT31;59687;37.520;15.068;2022-12-11T03:30:40;14.22;77.66
71839;SHT31;59687;37.520;15.068;2022-12-11T03:33:13;14.18;77.52
71839;SHT31;59687;37.520;15.068;2022-12-11T03:35:48;14.11;77.81
71839;SHT31;59687;37.520;15.068;2022-12-11T03:38:46;14.15;77.37
71839;SHT31;59687;37.520;15.068;2022-12-11T03:41:19;14.06;77.66
71839;SHT31;59687;37.520;15.068;2022-12-11T03:43:48;14.04;77.59
71839;SHT31;59687;37.520;15.068;2022-12-11T03:46:20;14.02;77.15
71839;SHT31;59687;37.520;15.068;2022-12-11T03:48:48;14.14;76.54
71839;SHT31;59687;37.520;15.068;2022-12-11T03:51:17;14.09;76.72
71839;SHT31;59687;37.520;15.068;2022-12-11T03:53:46;13.95;77.30
71839;SHT31;59687;37.520;15.068;2022-12-11T03:56:17;13.89;77.36
71839;SHT31;59687;37.520;15.068;2022-12-11T03:58:45;13.81;77.82
71839;SHT31;59687;37.520;15.068;2022-12-11T04:01:12;13.75;77.90
71839;SHT31;59687;37.520;15.068;2022-12-11T04:03:39;13.66;78.28
71839;SHT31;59687;37.520;15.068;2022-12-11T04:06:07;13.56;78.90
71839;SHT31;59687;37.520;15.068;2022-12-11T04:08:34;13.53;78.48
71839;SHT31;59687;37.520;15.068;2022-12-11T04:11:02;13.46;79.27
71839;SHT31;59687;37.520;15.068;2022-12-11T04:13:49;13.43;79.01
71839;SHT31;59687;37.520;15.068;2022-12-11T04:16:36;13.36;79.51
71839;SHT31;59687;37.520;15.068;2022-12-11T04:19:04;13.38;79.00
71839;SHT31;59687;37.520;15.068;2022-12-11T04:21:51;13.25;79.44
71839;SHT31;59687;37.520;15.068;2022-12-11T04:24:36;13.32;78.82
71839;SHT31;59687;37.520;15.068;2022-12-11T04:27:05;13.35;78.50
71839;SHT31;59687;37.520;15.068;2022-12-11T04:29:32;13.43;78.01
71839;SHT31;59687;37.520;15.068;2022-12-11T04:32:02;13.49;77.69
71839;SHT31;59687;37.520;15.068;2022-12-11T04:34:29;13.66;77.00
71839;SHT31;59687;37.520;15.068;2022-12-11T04:36:56;13.71;76.97
71839;SHT31;59687;37.520;15.068;2022-12-11T04:39:23;13.77;76.39
71839;SHT31;59687;37.520;15.068;2022-12-11T04:41:50;13.74;76.91
71839;SHT31;59687;37.520;15.068;2022-12-11T04:44:16;13.69;76.97
71839;SHT31;59687;37.520;15.068;2022-12-11T04:46:43;13.54;77.28
71839;SHT31;59687;37.520;15.068;2022-12-11T04:49:10;13.43;78.00
71839;SHT31;59687;37.520;15.068;2022-12-11T04:51:38;13.33;78.37
71839;SHT31;59687;37.520;15.068;2022-12-11T04:54:04;13.35;78.08
71839;SHT31;59687;37.520;15.068;2022-12-11T04:56:31;13.43;77.80
71839;SHT31;59687;37.520;15.068;2022-12-11T04:58:58;13.30;77.98
71839;SHT31;59687;37.520;15.068;2022-12-11T05:01:25;13.26;78.22
71839;SHT31;59687;37.520;15.068;2022-12-11T05:03:54;13.25;78.47
71839;SHT31;59687;37.520;15.068;2022-12-11T05:06:21;13.15;78.57
71839;SHT31;59687;37.520;15.068;2022-12-11T05:08:49;13.14;78.59
71839;SHT31;59687;37.520;15.068;2022-12-11T05:11:16;13.08;78.47
71839;SHT31;59687;37.520;15.068;2022-12-11T05:13:45;13.11;78.39
71839;SHT31;59687;37.520;15.068;2022-12-11T05:16:14;13.12;77.84
71839;SHT31;59687;37.520;15.068;2022-12-11T05:18:43;13.07;78.24
71839;SHT31;59687;37.520;15.068;2022-12-11T05:21:12;13.01;78.23
71839;SHT31;59687;37.520;15.068;2022-12-11T05:23:41;12.97;78.72
71839;SHT31;59687;37.520;15.068;2022-12-11T05:26:14;13.00;78.28
71839;SHT31;59687;37.520;15.068;2022-12-11T05:28:45;13.00;77.85
71839;SHT31;59687;37.520;15.068;2022-12-11T05:31:17;13.04;77.67
71839;SHT31;59687;37.520;15.068;2022-12-11T05:33:45;13.02;77.66
71839;SHT31;59687;37.520;15.068;2022-12-11T05:36:15;13.02;77.72
71839;SHT31;59687;37.520;15.068;2022-12-11T05:38:42;13.01;77.38
71839;SHT31;59687;37.520;15.068;2022-12-11T05:41:12;13.01;77.09
71839;SHT31;59687;37.520;15.068;2022-12-11T05:43:39;13.08;76.46
71839;SHT31;59687;37.520;15.068;2022-12-11T05:46:06;13.14;76.11
71839;SHT31;59687;37.520;15.068;2022-12-11T05:48:35;13.18;75.69
71839;SHT31;59687;37.520;15.068;2022-12-11T05:51:03;13.18;75.48
71839;SHT31;59687;37.520;15.068;2022-12-11T05:53:31;13.16;75.07
71839;SHT31;59687;37.520;15.068;2022-12-11T05:56:07;13.14;75.14
71839;SHT31;59687;37.520;15.068;2022-12-11T05:58:35;13.19;74.25
71839;SHT31;59687;37.520;15.068;2022-12-11T06:01:07;13.30;73.10
71839;SHT31;59687;37.520;15.068;2022-12-11T06:03:34;13.29;72.72
71839;SHT31;59687;37.520;15.068;2022-12-11T06:06:03;13.40;72.29
71839;SHT31;59687;37.520;15.068;2022-12-11T06:08:34;13.40;71.82
71839;SHT31;59687;37.520;15.068;2022-12-11T06:11:01;13.49;71.18
71839;SHT31;59687;37.520;15.068;2022-12-11T06:13:29;13.56;70.98
71839;SHT31;59687;37.520;15.068;2022-12-11T06:16:02;13.71;70.16
71839;SHT31;59687;37.520;15.068;2022-12-11T06:18:30;13.89;69.19
71839;SHT31;59687;37.520;15.068;2022-12-11T06:20:57;14.09;68.04
71839;SHT31;59687;37.520;15.068;2022-12-11T06:23:24;14.28;67.51
71839;SHT31;59687;37.520;15.068;2022-12-11T06:25:50;14.49;66.74
71839;SHT31;59687;37.520;15.068;2022-12-11T06:28:17;14.74;65.69
71839;SHT31;59687;37.520;15.068;2022-12-11T06:30:45;14.89;65.17
71839;SHT31;59687;37.520;15.068;2022-12-11T06:33:12;15.11;64.40
71839;SHT31;59687;37.520;15.068;2022-12-11T06:35:39;15.19;63.68
71839;SHT31;59687;37.520;15.068;2022-12-11T06:38:08;15.15;64.69
71839;SHT31;59687;37.520;15.068;2022-12-11T06:40:38;14.83;65.94
71839;SHT31;59687;37.520;15.068;2022-12-11T06:43:06;14.46;67.15
71839;SHT31;59687;37.520;15.068;2022-12-11T06:45:33;14.32;67.71
71839;SHT31;59687;37.520;15.068;2022-12-11T06:47:59;14.23;68.09
71839;SHT31;59687;37.520;15.068;2022-12-11T06:50:26;14.18;68.69
71839;SHT31;59687;37.520;15.068;2022-12-11T06:52:55;13.97;69.04
71839;SHT31;59687;37.520;15.068;2022-12-11T06:55:22;14.19;68.66
71839;SHT31;59687;37.520;15.068;2022-12-11T06:57:49;14.37;67.45
71839;SHT31;59687;37.520;15.068;2022-12-11T07:00:17;14.51;66.76
71839;SHT31;59687;37.520;15.068;2022-12-11T07:02:44;14.61;66.30
71839;SHT31;59687;37.520;15.068;2022-12-11T07:05:11;14.64;66.41
71839;SHT31;59687;37.520;15.068;2022-12-11T07:07:38;14.61;66.46
71839;SHT31;59687;37.520;15.068;2022-12-11T07:10:06;14.56;66.36
71839;SHT31;59687;37.520;15.068;2022-12-11T07:12:34;14.55;66.57
71839;SHT31;59687;37.520;15.068;2022-12-11T07:15:02;14.56;66.27
71839;SHT31;59687;37.520;15.068;2022-12-11T07:17:29;14.67;66.51
71839;SHT31;59687;37.520;15.068;2022-12-11T07:19:57;14.67;66.80
71839;SHT31;59687;37.520;15.068;2022-12-11T07:22:24;14.67;65.77
71839;SHT31;59687;37.520;15.068;2022-12-11T07:24:52;14.70;65.79
71839;SHT31;59687;37.520;15.068;2022-12-11T07:27:19;14.71;65.65
71839;SHT31;59687;37.520;15.068;2022-12-11T07:29:46;14.71;65.54
71839;SHT31;59687;37.520;15.068;2022-12-11T07:32:13;14.75;64.73
71839;SHT31;59687;37.520;15.068;2022-12-11T07:34:40;14.73;65.14
71839;SHT31;59687;37.520;15.068;2022-12-11T07:37:07;14.77;65.08
71839;SHT31;59687;37.520;15.068;2022-12-11T07:39:35;14.81;64.98
71839;SHT31;59687;37.520;15.068;2022-12-11T07:42:02;14.87;65.31
71839;SHT31;59687;37.520;15.068;2022-12-11T07:44:29;15.01;64.39
71839;SHT31;59687;37.520;15.068;2022-12-11T07:46:56;15.11;64.02
71839;SHT31;59687;37.520;15.068;2022-12-11T07:49:24;15.32;63.49
71839;SHT31;59687;37.520;15.068;2022-12-11T07:51:54;15.60;63.58
71839;SHT31;59687;37.520;15.068;2022-12-11T07:54:20;15.77;62.05
71839;SHT31;59687;37.520;15.068;2022-12-11T07:56:47;15.92;60.88
71839;SHT31;59687;37.520;15.068;2022-12-11T07:59:18;16.19;61.71
71839;SHT31;59687;37.520;15.068;2022-12-11T08:01:47;16.34;59.61
71839;SHT31;59687;37.520;15.068;2022-12-11T08:04:14;16.22;60.13
71839;SHT31;59687;37.520;15.068;2022-12-11T08:06:42;16.27;59.72
71839;SHT31;59687;37.520;15.068;2022-12-11T08:09:11;16.34;60.31
71839;SHT31;59687;37.520;15.068;2022-12-11T08:11:42;16.41;58.99
71839;SHT31;59687;37.520;15.068;2022-12-11T08:14:09;16.51;59.25
71839;SHT31;59687;37.520;15.068;2022-12-11T08:16:36;16.50;58.88
71839;SHT31;59687;37.520;15.068;2022-12-11T08:19:04;16.57;58.82
71839;SHT31;59687;37.520;15.068;2022-12-11T08:21:31;16.61;57.98
71839;SHT31;59687;37.520;15.068;2022-12-11T08:23:58;16.85;58.19
71839;SHT31;59687;37.520;15.068;2022-12-11T08:26:28;17.15;58.30
71839;SHT31;59687;37.520;15.068;2022-12-11T08:28:56;17.18;57.10
71839;SHT31;59687;37.520;15.068;2022-12-11T08:31:24;17.05;57.42
71839;SHT31;59687;37.520;15.068;2022-12-11T08:33:51;17.01;57.37
71839;SHT31;59687;37.520;15.068;2022-12-11T08:36:20;17.03;56.78
71839;SHT31;59687;37.520;15.068;2022-12-11T08:38:48;17.06;56.79
71839;SHT31;59687;37.520;15.068;2022-12-11T08:41:18;17.15;57.06
71839;SHT31;59687;37.520;15.068;2022-12-11T08:43:45;17.24;57.22
71839;SHT31;59687;37.520;15.068;2022-12-11T08:46:14;17.47;57.14
71839;SHT31;59687;37.520;15.068;2022-12-11T08:48:41;17.61;57.07
71839;SHT31;59687;37.520;15.068;2022-12-11T08:51:12;17.54;57.39
71839;SHT31;59687;37.520;15.068;2022-12-11T08:53:40;17.38;57.02
71839;SHT31;59687;37.520;15.068;2022-12-11T08:56:12;17.57;57.61
71839;SHT31;59687;37.520;15.068;2022-12-11T08:58:40;17.79;56.99
71839;SHT31;59687;37.520;15.068;2022-12-11T09:01:19;18.24;57.03
71839;SHT31;59687;37.520;15.068;2022-12-11T09:03:48;18.52;56.13
71839;SHT31;59687;37.520;15.068;2022-12-11T09:06:17;18.41;55.89
71839;SHT31;59687;37.520;15.068;2022-12-11T09:08:46;18.48;55.95
71839;SHT31;59687;37.520;15.068;2022-12-11T09:11:23;18.68;55.81
71839;SHT31;59687;37.520;15.068;2022-12-11T09:13:53;18.65;56.05
71839;SHT31;59687;37.520;15.068;2022-12-11T09:16:23;18.82;55.91
71839;SHT31;59687;37.520;15.068;2022-12-11T09:18:53;19.04;55.02
71839;SHT31;59687;37.520;15.068;2022-12-11T09:21:26;19.59;53.54
71839;SHT31;59687;37.520;15.068;2022-12-11T09:23:55;19.85;53.30
71839;SHT31;59687;37.520;15.068;2022-12-11T09:26:25;20.41;52.20
71839;SHT31;59687;37.520;15.068;2022-12-11T09:28:53;20.55;50.17
71839;SHT31;59687;37.520;15.068;2022-12-11T09:31:27;20.17;50.94
71839;SHT31;59687;37.520;15.068;2022-12-11T09:33:56;20.40;50.45
71839;SHT31;59687;37.520;15.068;2022-12-11T09:36:26;20.44;50.77
71839;SHT31;59687;37.520;15.068;2022-12-11T09:38:53;21.10;49.41
71839;SHT31;59687;37.520;15.068;2022-12-11T09:41:31;20.64;49.91
71839;SHT31;59687;37.520;15.068;2022-12-11T09:46:40;20.51;50.42
71839;SHT31;59687;37.520;15.068;2022-12-11T09:52:09;21.61;48.36
71839;SHT31;59687;37.520;15.068;2022-12-11T09:54:50;21.73;46.72
71839;SHT31;59687;37.520;15.068;2022-12-11T09:57:32;22.11;47.44
71839;SHT31;59687;37.520;15.068;2022-12-11T10:00:11;23.56;43.95
71839;SHT31;59687;37.520;15.068;2022-12-11T10:05:19;23.94;41.20
71839;SHT31;59687;37.520;15.068;2022-12-11T10:07:56;24.21;40.17
71839;SHT31;59687;37.520;15.068;2022-12-11T10:15:49;23.93;41.53
71839;SHT31;59687;37.520;15.068;2022-12-11T10:18:21;25.14;39.41
71839;SHT31;59687;37.520;15.068;2022-12-11T10:20:51;26.72;37.00
71839;SHT31;59687;37.520;15.068;2022-12-11T10:23:26;27.04;34.44
71839;SHT31;59687;37.520;15.068;2022-12-11T10:26:19;26.27;36.20
71839;SHT31;59687;37.520;15.068;2022-12-11T10:28:49;26.86;34.70
71839;SHT31;59687;37.520;15.068;2022-12-11T10:34:02;26.31;34.19
71839;SHT31;59687;37.520;15.068;2022-12-11T10:36:39;26.11;34.84
71839;SHT31;59687;37.520;15.068;2022-12-11T10:39:16;25.89;35.48
71839;SHT31;59687;37.520;15.068;2022-12-11T10:41:48;27.60;33.10
71839;SHT31;59687;37.520;15.068;2022-12-11T10:44:18;26.31;33.95
71839;SHT31;59687;37.520;15.068;2022-12-11T10:46:48;25.03;34.06
71839;SHT31;59687;37.520;15.068;2022-12-11T10:49:35;25.42;34.80
71839;SHT31;59687;37.520;15.068;2022-12-11T10:52:10;26.11;33.82
71839;SHT31;59687;37.520;15.068;2022-12-11T10:54:40;26.20;33.77
71839;SHT31;59687;37.520;15.068;2022-12-11T10:57:12;27.39;31.53
71839;SHT31;59687;37.520;15.068;2022-12-11T10:59:48;28.90;29.25
71839;SHT31;59687;37.520;15.068;2022-12-11T11:05:00;27.93;30.74
71839;SHT31;59687;37.520;15.068;2022-12-11T11:07:36;28.64;25.56
71839;SHT31;59687;37.520;15.068;2022-12-11T11:10:23;29.42;27.96
71839;SHT31;59687;37.520;15.068;2022-12-11T11:12:54;29.29;27.25
71839;SHT31;59687;37.520;15.068;2022-12-11T11:15:28;31.12;25.19
71839;SHT31;59687;37.520;15.068;2022-12-11T11:18:02;29.86;27.49
71839;SHT31;59687;37.520;15.068;2022-12-11T11:20:35;29.07;26.56
71839;SHT31;59687;37.520;15.068;2022-12-11T11:23:12;30.84;26.27
71839;SHT31;59687;37.520;15.068;2022-12-11T11:28:24;33.15;22.53
71839;SHT31;59687;37.520;15.068;2022-12-11T11:30:56;33.66;23.00
71839;SHT31;59687;37.520;15.068;2022-12-11T11:33:24;35.14;21.62
71839;SHT31;59687;37.520;15.068;2022-12-11T11:38:27;34.51;20.81
71839;SHT31;59687;37.520;15.068;2022-12-11T11:41:16;32.74;23.84
71839;SHT31;59687;37.520;15.068;2022-12-11T11:43:52;30.63;24.99
71839;SHT31;59687;37.520;15.068;2022-12-11T11:46:41;31.74;24.29
71839;SHT31;59687;37.520;15.068;2022-12-11T11:51:54;32.91;24.08
71839;SHT31;59687;37.520;15.068;2022-12-11T11:54:38;29.87;25.54
71839;SHT31;59687;37.520;15.068;2022-12-11T11:57:13;31.41;24.98
71839;SHT31;59687;37.520;15.068;2022-12-11T11:59:47;32.45;24.28
71839;SHT31;59687;37.520;15.068;2022-12-11T12:02:17;30.62;25.63
71839;SHT31;59687;37.520;15.068;2022-12-11T12:04:45;32.66;23.72
71839;SHT31;59687;37.520;15.068;2022-12-11T12:12:56;28.19;28.08
71839;SHT31;59687;37.520;15.068;2022-12-11T12:15:57;28.74;28.07
71839;SHT31;59687;37.520;15.068;2022-12-11T12:19:10;28.79;28.24
71839;SHT31;59687;37.520;15.068;2022-12-11T12:21:42;25.87;31.36
71839;SHT31;59687;37.520;15.068;2022-12-11T12:27:22;27.12;32.26
71839;SHT31;59687;37.520;15.068;2022-12-11T12:30:15;25.21;34.65
71839;SHT31;59687;37.520;15.068;2022-12-11T12:35:37;26.70;34.57
71839;SHT31;59687;37.520;15.068;2022-12-11T12:38:41;25.73;33.91
71839;SHT31;59687;37.520;15.068;2022-12-11T12:41:18;25.69;34.78
71839;SHT31;59687;37.520;15.068;2022-12-11T12:49:32;26.56;33.61
71839;SHT31;59687;37.520;15.068;2022-12-11T12:52:02;25.93;34.46
71839;SHT31;59687;37.520;15.068;2022-12-11T12:54:31;26.20;33.20
71839;SHT31;59687;37.520;15.068;2022-12-11T12:57:00;25.34;34.72
71839;SHT31;59687;37.520;15.068;2022-12-11T12:59:28;26.08;34.06
71839;SHT31;59687;37.520;15.068;2022-12-11T13:02:00;25.02;35.07
71839;SHT31;59687;37.520;15.068;2022-12-11T13:04:54;25.56;34.83
71839;SHT31;59687;37.520;15.068;2022-12-11T13:07:26;25.58;35.23
71839;SHT31;59687;37.520;15.068;2022-12-11T13:10:07;26.91;33.50
71839;SHT31;59687;37.520;15.068;2022-12-11T13:12:47;28.07;31.26
71839;SHT31;59687;37.520;15.068;2022-12-11T13:15:34;25.43;33.05
71839;SHT31;59687;37.520;15.068;2022-12-11T13:18:05;26.31;33.33
71839;SHT31;59687;37.520;15.068;2022-12-11T13:20:51;25.76;33.39
71839;SHT31;59687;37.520;15.068;2022-12-11T13:23:26;24.80;33.17
71839;SHT31;59687;37.520;15.068;2022-12-11T13:25:57;24.76;32.30
71839;SHT31;59687;37.520;15.068;2022-12-11T13:28:29;24.87;32.71
71839;SHT31;59687;37.520;15.068;2022-12-11T13:33:24;25.66;30.40
71839;SHT31;59687;37.520;15.068;2022-12-11T13:39:25;24.32;32.16
71839;SHT31;59687;37.520;15.068;2022-12-11T13:41:59;24.32;32.73
71839;SHT31;59687;37.520;15.068;2022-12-11T13:44:29;24.31;33.56
71839;SHT31;59687;37.520;15.068;2022-12-11T13:47:00;24.32;32.70
71839;SHT31;59687;37.520;15.068;2022-12-11T13:49:33;25.17;31.94
71839;SHT31;59687;37.520;15.068;2022-12-11T13:52:02;25.39;30.81
71839;SHT31;59687;37.520;15.068;2022-12-11T13:54:31;24.04;32.74
71839;SHT31;59687;37.520;15.068;2022-12-11T13:57:11;24.21;32.85
71839;SHT31;59687;37.520;15.068;2022-12-11T13:59:42;23.23;34.26
71839;SHT31;59687;37.520;15.068;2022-12-11T14:02:23;23.58;34.59
71839;SHT31;59687;37.520;15.068;2022-12-11T14:05:03;23.66;34.31
71839;SHT31;59687;37.520;15.068;2022-12-11T14:07:35;23.52;34.46
71839;SHT31;59687;37.520;15.068;2022-12-11T14:10:26;23.41;33.95
71839;SHT31;59687;37.520;15.068;2022-12-11T14:13:15;22.99;34.72
71839;SHT31;59687;37.520;15.068;2022-12-11T14:15:45;22.99;34.85
71839;SHT31;59687;37.520;15.068;2022-12-11T14:18:17;22.49;35.13
71839;SHT31;59687;37.520;15.068;2022-12-11T14:20:52;21.86;36.51
71839;SHT31;59687;37.520;15.068;2022-12-11T14:23:25;21.81;36.83
71839;SHT31;59687;37.520;15.068;2022-12-11T14:25:53;22.22;36.41
71839;SHT31;59687;37.520;15.068;2022-12-11T14:28:21;21.94;37.11
71839;SHT31;59687;37.520;15.068;2022-12-11T14:30:50;21.89;37.43
71839;SHT31;59687;37.520;15.068;2022-12-11T14:33:21;21.88;37.80
71839;SHT31;59687;37.520;15.068;2022-12-11T14:35:53;21.21;38.64
71839;SHT31;59687;37.520;15.068;2022-12-11T14:38:36;20.49;40.44
71839;SHT31;59687;37.520;15.068;2022-12-11T14:41:56;20.07;41.60
71839;SHT31;59687;37.520;15.068;2022-12-11T14:44:00;20.31;41.17
71839;SHT31;59687;37.520;15.068;2022-12-11T14:46:38;20.61;41.11
71839;SHT31;59687;37.520;15.068;2022-12-11T14:49:20;20.61;40.33
71839;SHT31;59687;37.520;15.068;2022-12-11T14:51:52;20.62;40.93
71839;SHT31;59687;37.520;15.068;2022-12-11T14:54:30;20.69;41.01
71839;SHT31;59687;37.520;15.068;2022-12-11T14:56:59;20.51;41.00
71839;SHT31;59687;37.520;15.068;2022-12-11T14:59:28;20.28;41.89
71839;SHT31;59687;37.520;15.068;2022-12-11T15:02:02;20.03;42.54
71839;SHT31;59687;37.520;15.068;2022-12-11T15:04:31;19.92;43.43
71839;SHT31;59687;37.520;15.068;2022-12-11T15:06:59;19.44;44.05
71839;SHT31;59687;37.520;15.068;2022-12-11T15:09:27;19.07;45.42
71839;SHT31;59687;37.520;15.068;2022-12-11T15:11:59;18.88;45.77
71839;SHT31;59687;37.520;15.068;2022-12-11T15:14:40;18.67;46.94
71839;SHT31;59687;37.520;15.068;2022-12-11T15:17:15;18.26;48.43
71839;SHT31;59687;37.520;15.068;2022-12-11T15:19:55;18.12;49.63
71839;SHT31;59687;37.520;15.068;2022-12-11T15:22:29;17.79;50.56
71839;SHT31;59687;37.520;15.068;2022-12-11T15:24:57;17.60;51.28
71839;SHT31;59687;37.520;15.068;2022-12-11T15:27:36;17.40;52.11
71839;SHT31;59687;37.520;15.068;2022-12-11T15:33:18;17.13;53.35
71839;SHT31;59687;37.520;15.068;2022-12-11T15:35:56;16.98;54.06
71839;SHT31;59687;37.520;15.068;2022-12-11T15:38:36;16.86;54.62
71839;SHT31;59687;37.520;15.068;2022-12-11T15:41:08;16.81;55.14
71839;SHT31;59687;37.520;15.068;2022-12-11T15:43:40;17.05;53.96
71839;SHT31;59687;37.520;15.068;2022-12-11T15:46:08;16.96;54.27
71839;SHT31;59687;37.520;15.068;2022-12-11T15:48:35;16.99;54.39
71839;SHT31;59687;37.520;15.068;2022-12-11T15:51:02;16.92;54.82
71839;SHT31;59687;37.520;15.068;2022-12-11T15:53:30;16.98;54.58
71839;SHT31;59687;37.520;15.068;2022-12-11T15:55:57;16.93;54.78
71839;SHT31;59687;37.520;15.068;2022-12-11T15:58:27;17.15;54.15
71839;SHT31;59687;37.520;15.068;2022-12-11T16:00:57;17.05;54.66
71839;SHT31;59687;37.520;15.068;2022-12-11T16:03:24;17.02;54.70
71839;SHT31;59687;37.520;15.068;2022-12-11T16:05:52;17.03;55.03
71839;SHT31;59687;37.520;15.068;2022-12-11T16:08:21;17.03;54.98
71839;SHT31;59687;37.520;15.068;2022-12-11T16:10:52;16.98;55.14
71839;SHT31;59687;37.520;15.068;2022-12-11T16:13:22;17.02;55.36
71839;SHT31;59687;37.520;15.068;2022-12-11T16:15:50;16.99;55.70
71839;SHT31;59687;37.520;15.068;2022-12-11T16:18:20;16.96;56.17
71839;SHT31;59687;37.520;15.068;2022-12-11T16:20:52;16.98;56.34
71839;SHT31;59687;37.520;15.068;2022-12-11T16:23:19;16.65;58.46
71839;SHT31;59687;37.520;15.068;2022-12-11T16:25:46;16.61;59.32
71839;SHT31;59687;37.520;15.068;2022-12-11T16:28:16;16.51;60.63
71839;SHT31;59687;37.520;15.068;2022-12-11T16:30:43;16.32;61.78
71839;SHT31;59687;37.520;15.068;2022-12-11T16:33:11;16.47;61.81
71839;SHT31;59687;37.520;15.068;2022-12-11T16:35:40;16.30;62.24
71839;SHT31;59687;37.520;15.068;2022-12-11T16:38:09;16.20;62.88
71839;SHT31;59687;37.520;15.068;2022-12-11T16:40:36;16.23;63.05
71839;SHT31;59687;37.520;15.068;2022-12-11T16:43:04;16.13;63.75
71839;SHT31;59687;37.520;15.068;2022-12-11T16:45:33;16.17;63.91
71839;SHT31;59687;37.520;15.068;2022-12-11T16:48:05;16.20;64.26
71839;SHT31;59687;37.520;15.068;2022-12-11T16:50:32;15.92;65.75